createdAt,value
2022-10-06T00:01:14.066Z,51.85
2022-10-06T00:03:41.709Z,50.84
2022-10-06T00:06:11.060Z,51.49
2022-10-06T00:08:40.038Z,51.11
2022-10-06T00:11:12.236Z,51.43
2022-10-06T00:13:40.396Z,51.73
2022-10-06T00:16:13.123Z,51.63
2022-10-06T00:18:40.499Z,51.67
2022-10-06T00:21:07.806Z,51.73
2022-10-06T00:23:35.189Z,51.63
2022-10-06T00:26:02.556Z,52.04
2022-10-06T00:28:29.899Z,51.42
2022-10-06T00:31:01.963Z,51.58
2022-10-06T00:33:29.153Z,51.06
2022-10-06T00:35:58.355Z,51.35
2022-10-06T00:38:27.521Z,51.51
2022-10-06T00:40:56.253Z,50.90
2022-10-06T00:43:51.523Z,51.27
2022-10-06T00:46:26.333Z,51.05
2022-10-06T00:49:00.949Z,51.43
2022-10-06T00:51:31.091Z,51.35
2022-10-06T00:53:58.929Z,51.85
2022-10-06T00:56:27.638Z,51.84
2022-10-06T00:58:54.890Z,51.28
2022-10-06T01:01:22.173Z,51.51
2022-10-06T01:03:55.313Z,51.82
2022-10-06T01:06:22.385Z,52.21
2022-10-06T01:08:50.552Z,51.99
2022-10-06T01:11:17.785Z,51.75
2022-10-06T01:13:47.799Z,52.27
2022-10-06T01:16:25.491Z,52.32
2022-10-06T01:18:56.000Z,52.23
2022-10-06T01:21:35.037Z,52.62
2022-10-06T01:24:03.950Z,52.63
2022-10-06T01:26:34.514Z,53.02
2022-10-06T01:29:01.935Z,53.20
2022-10-06T01:31:29.758Z,52.76
2022-10-06T01:33:57.061Z,53.12
2022-10-06T01:36:24.437Z,53.35
2022-10-06T01:38:52.184Z,52.54
2022-10-06T01:41:19.859Z,52.67
2022-10-06T01:43:47.346Z,53.31
2022-10-06T01:46:15.547Z,53.24
2022-10-06T01:48:44.248Z,53.04
2022-10-06T01:51:16.982Z,52.75
2022-10-06T01:53:44.316Z,53.32
2022-10-06T01:56:11.747Z,52.95
2022-10-06T01:58:39.296Z,52.88
2022-10-06T02:01:09.194Z,53.11
2022-10-06T02:03:38.557Z,52.94
2022-10-06T02:06:09.411Z,53.26
2022-10-06T02:08:36.708Z,52.80
2022-10-06T02:11:10.651Z,52.71
2022-10-06T02:13:44.917Z,53.57
2022-10-06T02:16:14.429Z,53.10
2022-10-06T02:18:43.198Z,53.65
2022-10-06T02:21:21.386Z,53.38
2022-10-06T02:23:52.172Z,53.61
2022-10-06T02:26:19.472Z,53.03
2022-10-06T02:28:50.942Z,52.96
2022-10-06T02:31:24.462Z,52.89
2022-10-06T02:33:52.454Z,53.02
2022-10-06T02:36:20.195Z,53.26
2022-10-06T02:38:47.249Z,53.44
2022-10-06T02:41:14.670Z,53.32
2022-10-06T02:43:41.786Z,53.09
2022-10-06T02:46:14.721Z,53.10
2022-10-06T02:48:47.604Z,52.98
2022-10-06T02:51:18.569Z,52.79
2022-10-06T02:53:48.407Z,53.18
2022-10-06T02:56:25.987Z,52.75
2022-10-06T02:58:54.246Z,52.60
2022-10-06T03:01:30.667Z,53.73
2022-10-06T03:04:02.369Z,53.18
2022-10-06T03:06:32.741Z,52.78
2022-10-06T03:09:16.573Z,52.88
2022-10-06T03:11:51.148Z,53.15
2022-10-06T03:14:32.169Z,53.14
2022-10-06T03:16:59.859Z,53.37
2022-10-06T03:19:33.436Z,53.25
2022-10-06T03:22:01.391Z,53.08
2022-10-06T03:24:37.835Z,53.09
2022-10-06T03:27:05.395Z,53.16
2022-10-06T03:29:34.327Z,53.39
2022-10-06T03:32:05.439Z,53.15
2022-10-06T03:34:34.331Z,53.25
2022-10-06T03:37:06.074Z,53.32
2022-10-06T03:39:34.484Z,52.85
2022-10-06T03:42:02.320Z,53.07
2022-10-06T03:44:36.230Z,52.57
2022-10-06T03:47:04.243Z,52.86
2022-10-06T03:49:33.555Z,52.35
2022-10-06T03:52:00.816Z,53.10
2022-10-06T03:54:34.740Z,52.70
2022-10-06T03:57:04.798Z,52.82
2022-10-06T03:59:34.639Z,52.94
2022-10-06T04:02:06.310Z,53.12
2022-10-06T04:04:38.039Z,52.46
2022-10-06T04:07:09.883Z,52.46
2022-10-06T04:09:37.757Z,52.41
2022-10-06T04:12:21.356Z,52.19
2022-10-06T04:14:54.398Z,52.33
2022-10-06T04:17:25.200Z,52.39
2022-10-06T04:19:52.810Z,52.73
2022-10-06T04:22:20.621Z,52.12
2022-10-06T04:24:50.149Z,52.42
2022-10-06T04:27:29.517Z,52.05
2022-10-06T04:30:07.129Z,52.15
2022-10-06T04:32:41.031Z,51.93
2022-10-06T04:35:08.812Z,52.03
2022-10-06T04:37:45.350Z,52.01
2022-10-06T04:40:14.128Z,52.01
2022-10-06T04:42:41.708Z,52.02
2022-10-06T04:45:17.062Z,52.15
2022-10-06T04:47:48.435Z,52.17
2022-10-06T04:50:16.260Z,51.97
2022-10-06T04:53:06.628Z,52.23
2022-10-06T04:55:36.879Z,52.49
2022-10-06T04:58:04.784Z,52.50
2022-10-06T05:00:32.168Z,51.83
2022-10-06T05:03:01.933Z,51.82
2022-10-06T05:05:32.761Z,52.42
2022-10-06T05:08:02.784Z,52.22
2022-10-06T05:10:33.830Z,51.70
2022-10-06T05:13:07.969Z,51.79
2022-10-06T05:15:40.160Z,52.11
2022-10-06T05:18:07.452Z,51.72
2022-10-06T05:20:34.920Z,51.45
2022-10-06T05:23:10.270Z,51.85
2022-10-06T05:25:40.817Z,52.01
2022-10-06T05:28:09.110Z,51.94
2022-10-06T05:30:39.992Z,52.21
2022-10-06T05:33:08.032Z,52.22
2022-10-06T05:35:38.337Z,52.22
2022-10-06T05:38:12.053Z,52.30
2022-10-06T05:40:43.379Z,52.66
2022-10-06T05:43:11.001Z,52.53
2022-10-06T05:45:40.955Z,53.12
2022-10-06T05:48:10.415Z,52.75
2022-10-06T05:50:40.556Z,52.91
2022-10-06T05:53:08.020Z,52.76
2022-10-06T05:55:44.563Z,52.84
2022-10-06T05:58:21.046Z,52.63
2022-10-06T06:00:49.333Z,52.93
2022-10-06T06:03:17.110Z,52.46
2022-10-06T06:05:44.487Z,53.41
2022-10-06T06:08:22.499Z,52.45
2022-10-06T06:10:50.636Z,52.40
2022-10-06T06:13:29.200Z,52.49
2022-10-06T06:16:12.724Z,52.17
2022-10-06T06:18:46.944Z,52.38
2022-10-06T06:21:18.889Z,52.06
2022-10-06T06:23:50.656Z,52.58
2022-10-06T06:26:23.877Z,52.94
2022-10-06T06:28:52.600Z,53.29
2022-10-06T06:31:29.747Z,52.97
2022-10-06T06:34:00.413Z,52.53
2022-10-06T06:36:42.094Z,52.88
2022-10-06T06:39:16.776Z,52.78
2022-10-06T06:41:52.026Z,52.58
2022-10-06T06:44:41.827Z,52.33
2022-10-06T06:47:36.084Z,52.15
2022-10-06T06:50:16.452Z,52.42
2022-10-06T06:56:03.182Z,52.34
2022-10-06T06:58:33.600Z,52.35
2022-10-06T07:01:16.864Z,52.21
2022-10-06T07:03:58.624Z,52.23
2022-10-06T07:06:33.536Z,52.02
2022-10-06T07:09:07.188Z,51.89
2022-10-06T07:11:39.123Z,51.95
2022-10-06T07:14:13.103Z,52.36
2022-10-06T07:17:02.881Z,52.43
2022-10-06T07:19:49.413Z,52.55
2022-10-06T07:22:39.568Z,52.19
2022-10-06T07:25:40.507Z,52.16
2022-10-06T07:28:12.615Z,52.08
2022-10-06T07:30:41.851Z,52.46
2022-10-06T07:33:19.580Z,51.74
2022-10-06T07:35:51.871Z,52.15
2022-10-06T07:38:27.804Z,51.84
2022-10-06T07:41:28.989Z,52.04
2022-10-06T07:43:50.559Z,52.06
2022-10-06T07:46:24.271Z,51.63
2022-10-06T07:48:58.161Z,51.46
2022-10-06T07:51:27.514Z,51.54
2022-10-06T07:53:59.705Z,51.42
2022-10-06T07:56:47.266Z,51.68
2022-10-06T07:59:14.611Z,50.99
2022-10-06T08:01:44.488Z,50.93
2022-10-06T08:04:13.192Z,50.90
2022-10-06T08:06:42.218Z,50.26
2022-10-06T08:09:09.739Z,50.52
2022-10-06T08:11:37.591Z,50.27
2022-10-06T08:14:04.903Z,50.57
2022-10-06T08:16:32.462Z,50.61
2022-10-06T08:19:01.181Z,50.23
2022-10-06T08:21:36.930Z,49.80
2022-10-06T08:24:04.261Z,49.67
2022-10-06T08:26:33.484Z,50.11
2022-10-06T08:29:03.839Z,49.92
2022-10-06T08:31:32.893Z,50.25
2022-10-06T08:34:01.601Z,50.20
2022-10-06T08:36:31.836Z,50.20
2022-10-06T08:39:00.907Z,50.08
2022-10-06T08:41:48.861Z,51.14
2022-10-06T08:44:19.513Z,50.26
2022-10-06T08:47:03.032Z,50.35
2022-10-06T08:49:49.806Z,49.75
2022-10-06T08:52:35.937Z,49.74
2022-10-06T08:55:42.482Z,48.23
2022-10-06T08:58:32.375Z,47.19
2022-10-06T09:01:14.708Z,46.50
2022-10-06T09:03:48.903Z,46.18
2022-10-06T09:06:28.007Z,45.75
2022-10-06T09:09:04.683Z,46.41
2022-10-06T09:11:45.724Z,46.74
2022-10-06T09:14:33.576Z,47.75
2022-10-06T09:17:06.268Z,48.08
2022-10-06T09:19:58.809Z,49.33
2022-10-06T09:22:33.090Z,49.39
2022-10-06T09:25:15.740Z,49.67
2022-10-06T09:27:51.466Z,49.21
2022-10-06T09:30:19.574Z,49.26
2022-10-06T09:36:11.176Z,48.09
2022-10-06T09:38:57.510Z,48.45
2022-10-06T09:41:42.023Z,47.70
2022-10-06T09:44:52.380Z,47.47
2022-10-06T09:47:46.661Z,47.48
2022-10-06T09:50:17.065Z,46.90
2022-10-06T09:53:25.833Z,46.07
2022-10-06T09:56:00.010Z,45.16
2022-10-06T09:58:40.845Z,46.49
2022-10-06T10:01:17.817Z,45.25
2022-10-06T10:04:19.375Z,44.59
2022-10-06T10:06:53.560Z,44.44
2022-10-06T10:09:31.563Z,44.16
2022-10-06T10:12:30.533Z,44.89
2022-10-06T10:15:04.815Z,44.01
2022-10-06T10:17:43.611Z,43.68
2022-10-06T10:20:30.891Z,43.41
2022-10-06T10:23:05.747Z,43.79
2022-10-06T10:26:15.085Z,42.83
2022-10-06T10:29:04.519Z,42.69
2022-10-06T10:32:15.263Z,42.15
2022-10-06T10:35:17.033Z,41.13
2022-10-06T10:38:14.442Z,41.71
2022-10-06T10:40:54.092Z,41.85
2022-10-06T10:43:43.437Z,42.02
2022-10-06T10:46:30.716Z,42.33
2022-10-06T10:49:20.685Z,41.74
2022-10-06T10:52:09.558Z,41.84
2022-10-06T10:55:00.279Z,41.27
2022-10-06T10:57:41.278Z,40.79
2022-10-06T11:00:16.673Z,41.31
2022-10-06T11:02:44.823Z,41.60
2022-10-06T11:05:19.481Z,39.71
2022-10-06T11:08:17.649Z,39.60
2022-10-06T11:10:57.148Z,39.37
2022-10-06T11:13:42.749Z,38.92
2022-10-06T11:16:50.419Z,38.24
2022-10-06T11:19:56.637Z,38.08
2022-10-06T11:22:39.911Z,38.44
2022-10-06T11:25:21.056Z,37.76
2022-10-06T11:28:15.566Z,37.81
2022-10-06T11:30:55.091Z,38.11
2022-10-06T11:33:50.196Z,38.68
2022-10-06T11:36:46.222Z,37.98
2022-10-06T11:39:23.664Z,37.67
2022-10-06T11:42:35.655Z,37.75
2022-10-06T11:45:12.402Z,37.80
2022-10-06T11:48:11.220Z,37.21
2022-10-06T11:50:44.776Z,36.96
2022-10-06T11:53:37.328Z,36.63
2022-10-06T11:56:19.947Z,36.42
2022-10-06T11:58:56.204Z,36.39
2022-10-06T12:01:33.902Z,36.21
2022-10-06T12:04:10.462Z,36.18
2022-10-06T12:07:04.794Z,36.30
2022-10-06T12:09:51.003Z,35.36
2022-10-06T12:12:19.444Z,36.12
2022-10-06T12:18:05.077Z,35.42
2022-10-06T12:20:52.360Z,35.50
2022-10-06T12:23:42.905Z,35.96
2022-10-06T12:26:28.952Z,34.90
2022-10-06T12:29:16.450Z,35.51
2022-10-06T12:31:55.486Z,35.01
2022-10-06T12:34:50.209Z,34.83
2022-10-06T12:37:33.540Z,34.16
2022-10-06T12:40:38.289Z,34.50
2022-10-06T12:43:23.822Z,33.83
2022-10-06T12:46:19.788Z,33.97
2022-10-06T12:49:08.046Z,33.12
2022-10-06T12:51:39.303Z,33.28
2022-10-06T12:54:19.761Z,33.25
2022-10-06T12:57:01.593Z,32.61
2022-10-06T12:59:35.963Z,33.62
2022-10-06T13:02:20.569Z,33.14
2022-10-06T13:05:15.380Z,31.41
2022-10-06T13:07:59.424Z,32.01
2022-10-06T13:10:30.560Z,31.60
2022-10-06T13:13:00.607Z,32.02
2022-10-06T13:15:41.710Z,31.79
2022-10-06T13:18:18.582Z,32.25
2022-10-06T13:21:00.742Z,32.29
2022-10-06T13:23:29.860Z,31.39
2022-10-06T13:26:02.803Z,32.03
2022-10-06T13:28:38.539Z,31.36
2022-10-06T13:31:29.792Z,31.48
2022-10-06T13:34:11.311Z,31.84
2022-10-06T13:36:41.931Z,31.90
2022-10-06T13:39:16.047Z,32.04
2022-10-06T13:42:00.696Z,33.05
2022-10-06T13:44:41.876Z,32.61
2022-10-06T13:47:17.846Z,32.88
2022-10-06T13:50:04.369Z,33.38
2022-10-06T13:52:48.345Z,33.25
2022-10-06T13:55:21.385Z,33.64
2022-10-06T13:57:50.506Z,33.12
2022-10-06T14:00:24.683Z,33.24
2022-10-06T14:02:54.586Z,32.63
2022-10-06T14:05:32.385Z,32.89
2022-10-06T14:08:12.239Z,32.36
2022-10-06T14:10:59.917Z,32.32
2022-10-06T14:13:49.849Z,32.91
2022-10-06T14:16:26.432Z,33.87
2022-10-06T14:19:01.469Z,34.83
2022-10-06T14:21:45.211Z,35.35
2022-10-06T14:24:19.841Z,34.45
2022-10-06T14:26:51.413Z,35.21
2022-10-06T14:29:21.078Z,34.47
2022-10-06T14:31:49.688Z,35.10
2022-10-06T14:34:20.878Z,35.85
2022-10-06T14:36:54.186Z,36.50
2022-10-06T14:39:22.654Z,36.24
2022-10-06T14:41:50.124Z,36.45
2022-10-06T14:44:19.472Z,37.01
2022-10-06T14:46:51.278Z,36.92
2022-10-06T14:49:19.172Z,37.05
2022-10-06T14:51:48.613Z,37.48
2022-10-06T14:54:16.835Z,37.23
2022-10-06T14:56:44.402Z,37.89
2022-10-06T14:59:17.341Z,37.58
2022-10-06T15:01:46.175Z,37.63
2022-10-06T15:04:15.911Z,37.84
2022-10-06T15:07:02.326Z,37.62
2022-10-06T15:09:31.576Z,37.84
2022-10-06T15:12:03.213Z,37.88
2022-10-06T15:14:31.138Z,38.12
2022-10-06T15:17:00.494Z,37.95
2022-10-06T15:19:28.421Z,38.67
2022-10-06T15:23:06.594Z,38.40
2022-10-06T15:25:52.892Z,38.78
2022-10-06T15:28:38.783Z,39.01
2022-10-06T15:31:06.910Z,38.94
2022-10-06T15:33:37.657Z,39.31
2022-10-06T15:36:19.371Z,39.23
2022-10-06T15:38:47.649Z,39.60
2022-10-06T15:41:14.938Z,39.74
2022-10-06T15:43:59.634Z,40.18
2022-10-06T15:46:41.072Z,40.28
2022-10-06T15:49:24.888Z,40.72
2022-10-06T15:52:07.032Z,40.69
2022-10-06T15:54:38.513Z,40.68
2022-10-06T15:57:16.577Z,41.38
2022-10-06T15:59:46.504Z,41.44
2022-10-06T16:02:18.644Z,41.68
2022-10-06T16:05:15.260Z,41.59
2022-10-06T16:07:50.109Z,41.77
2022-10-06T16:10:21.527Z,42.36
2022-10-06T16:12:51.744Z,42.53
2022-10-06T16:15:19.234Z,42.76
2022-10-06T16:17:47.586Z,43.05
2022-10-06T16:20:20.744Z,43.74
2022-10-06T16:22:52.149Z,43.68
2022-10-06T16:25:19.765Z,43.39
2022-10-06T16:28:07.650Z,44.45
2022-10-06T16:30:44.671Z,44.49
2022-10-06T16:33:17.555Z,44.44
2022-10-06T16:36:00.911Z,44.69
2022-10-06T16:38:36.393Z,44.75
2022-10-06T16:41:05.988Z,45.25
2022-10-06T16:43:35.492Z,44.89
2022-10-06T16:46:24.242Z,44.74
2022-10-06T16:48:55.276Z,44.86
2022-10-06T16:51:37.827Z,44.93
2022-10-06T16:54:08.136Z,44.96
2022-10-06T16:56:37.300Z,45.53
2022-10-06T16:59:08.018Z,44.98
2022-10-06T17:01:37.578Z,44.93
2022-10-06T17:04:07.876Z,43.76
2022-10-06T17:06:40.038Z,44.76
2022-10-06T17:09:09.168Z,44.41
2022-10-06T17:11:36.612Z,44.06
2022-10-06T17:14:05.468Z,44.90
2022-10-06T17:16:36.222Z,44.22
2022-10-06T17:19:04.463Z,44.34
2022-10-06T17:21:45.752Z,44.18
2022-10-06T17:24:15.251Z,44.46
2022-10-06T17:26:44.403Z,44.63
2022-10-06T17:29:20.608Z,45.23
2022-10-06T17:31:51.220Z,45.60
2022-10-06T17:34:26.495Z,45.21
2022-10-06T17:37:02.756Z,45.21
2022-10-06T17:39:30.879Z,45.80
2022-10-06T17:41:58.099Z,45.77
2022-10-06T17:44:29.473Z,45.59
2022-10-06T17:47:01.975Z,46.13
2022-10-06T17:49:35.826Z,45.75
2022-10-06T17:52:03.049Z,45.84
2022-10-06T17:54:32.896Z,45.73
2022-10-06T17:57:00.759Z,45.95
2022-10-06T17:59:32.319Z,46.79
2022-10-06T18:02:02.967Z,46.52
2022-10-06T18:04:31.968Z,46.37
2022-10-06T18:06:59.312Z,46.74
2022-10-06T18:09:26.854Z,47.80
2022-10-06T18:11:58.251Z,46.68
2022-10-06T18:14:32.637Z,46.55
2022-10-06T18:17:09.911Z,46.83
2022-10-06T18:19:39.526Z,46.72
2022-10-06T18:22:14.750Z,46.93
2022-10-06T18:24:42.321Z,46.93
2022-10-06T18:27:09.719Z,47.05
2022-10-06T18:29:42.781Z,47.54
2022-10-06T18:37:56.739Z,46.91
2022-10-06T18:40:25.669Z,47.44
2022-10-06T18:42:55.135Z,47.31
2022-10-06T18:45:49.591Z,47.88
2022-10-06T18:48:49.213Z,47.47
2022-10-06T18:51:36.283Z,47.98
2022-10-06T18:54:25.608Z,47.59
2022-10-06T18:57:03.169Z,47.69
2022-10-06T18:59:32.332Z,48.02
2022-10-06T19:02:01.024Z,47.24
2022-10-06T19:04:31.007Z,47.54
2022-10-06T19:07:02.399Z,47.33
2022-10-06T19:09:32.780Z,47.31
2022-10-06T19:12:02.992Z,46.96
2022-10-06T19:14:40.851Z,46.98
2022-10-06T19:17:16.097Z,46.28
2022-10-06T19:19:45.994Z,46.29
2022-10-06T19:22:20.669Z,46.37
2022-10-06T19:24:53.373Z,46.12
2022-10-06T19:27:33.222Z,45.90
2022-10-06T19:30:06.870Z,45.79
2022-10-06T19:32:42.272Z,45.58
2022-10-06T19:35:13.651Z,45.90
2022-10-06T19:37:45.947Z,45.25
2022-10-06T19:40:16.113Z,45.36
2022-10-06T19:42:48.225Z,45.18
2022-10-06T19:45:31.036Z,45.40
2022-10-06T19:48:03.540Z,45.18
2022-10-06T19:50:46.849Z,45.34
2022-10-06T19:53:23.166Z,44.97
2022-10-06T19:58:33.578Z,44.81
2022-10-06T20:01:07.638Z,44.69
2022-10-06T20:03:45.047Z,44.63
2022-10-06T20:06:21.755Z,44.58
2022-10-06T20:08:49.886Z,44.92
2022-10-06T20:11:22.501Z,44.56
2022-10-06T20:13:50.537Z,44.50
2022-10-06T20:16:21.076Z,44.65
2022-10-06T20:18:50.785Z,44.69
2022-10-06T20:21:22.761Z,44.68
2022-10-06T20:23:56.886Z,44.78
2022-10-06T20:26:29.606Z,45.34
2022-10-06T20:28:59.361Z,44.92
2022-10-06T20:31:29.478Z,45.19
2022-10-06T20:33:59.726Z,45.22
2022-10-06T20:36:31.942Z,45.36
2022-10-06T20:39:19.436Z,45.54
2022-10-06T20:41:46.824Z,45.09
2022-10-06T20:44:14.013Z,44.90
2022-10-06T20:46:45.085Z,45.18
2022-10-06T20:49:17.529Z,44.85
2022-10-06T20:51:50.216Z,45.14
2022-10-06T20:54:31.084Z,44.84
2022-10-06T20:56:58.226Z,44.86
2022-10-06T20:59:25.350Z,44.77
2022-10-06T21:01:52.843Z,44.47
2022-10-06T21:04:24.083Z,44.58
2022-10-06T21:06:52.008Z,43.71
2022-10-06T21:09:23.202Z,43.68
2022-10-06T21:11:53.993Z,43.58
2022-10-06T21:14:25.383Z,43.57
2022-10-06T21:17:00.226Z,43.51
2022-10-06T21:19:39.369Z,43.55
2022-10-06T21:22:06.833Z,43.10
2022-10-06T21:24:37.349Z,43.03
2022-10-06T21:27:11.352Z,43.64
2022-10-06T21:30:29.290Z,42.67
2022-10-06T21:33:19.480Z,42.86
2022-10-06T21:36:06.743Z,42.77
2022-10-06T21:41:34.585Z,42.40
2022-10-06T21:44:15.542Z,42.68
2022-10-06T21:49:50.971Z,42.06
2022-10-06T21:52:27.491Z,42.33
2022-10-06T21:55:06.931Z,41.76
2022-10-06T21:57:37.321Z,42.20
2022-10-06T22:00:11.378Z,42.14
2022-10-06T22:02:49.435Z,42.88
2022-10-06T22:05:25.888Z,42.86
2022-10-06T22:07:56.998Z,42.90
2022-10-06T22:10:29.905Z,43.02
2022-10-06T22:13:19.290Z,43.44
2022-10-06T22:16:04.257Z,43.38
2022-10-06T22:18:43.583Z,43.89
2022-10-06T22:21:28.252Z,43.88
2022-10-06T22:24:06.908Z,43.60
2022-10-06T22:26:42.558Z,43.40
2022-10-06T22:29:18.747Z,43.84
2022-10-06T22:32:04.983Z,43.61
2022-10-06T22:34:34.381Z,43.76
2022-10-06T22:37:11.267Z,43.64
2022-10-06T22:39:39.018Z,43.89
2022-10-06T22:42:06.772Z,43.91
2022-10-06T22:44:34.112Z,43.82
2022-10-06T22:47:04.950Z,44.36
2022-10-06T22:49:40.128Z,44.34
2022-10-06T22:52:07.974Z,43.89
2022-10-06T22:54:35.439Z,44.13
2022-10-06T22:57:07.182Z,44.08
2022-10-06T22:59:40.590Z,44.05
2022-10-06T23:02:11.113Z,44.42
2022-10-06T23:04:39.090Z,44.11
2022-10-06T23:07:07.766Z,44.42
2022-10-06T23:09:38.628Z,43.96
2022-10-06T23:12:06.056Z,44.41
2022-10-06T23:14:36.438Z,44.37
2022-10-06T23:17:04.251Z,44.43
2022-10-06T23:19:35.848Z,44.73
2022-10-06T23:22:03.461Z,44.18
2022-10-06T23:24:30.975Z,44.15
2022-10-06T23:27:04.732Z,44.30
2022-10-06T23:29:35.565Z,44.52
2022-10-06T23:32:05.416Z,45.20
2022-10-06T23:34:35.198Z,44.86
2022-10-06T23:37:02.572Z,44.54
2022-10-06T23:39:30.041Z,45.30
2022-10-06T23:41:58.017Z,44.58
2022-10-06T23:44:27.291Z,44.50
2022-10-06T23:46:54.623Z,45.07
2022-10-06T23:49:21.958Z,45.03
2022-10-06T23:51:49.500Z,45.04
2022-10-06T23:54:19.043Z,45.25
2022-10-06T23:56:51.631Z,45.17
